createdAt,value
2023-04-15T00:01:56.111Z,-0.16
2023-04-15T00:04:59.858Z,-0.16
2023-04-15T00:08:03.396Z,0.05
2023-04-15T00:11:07.369Z,0.27
2023-04-15T00:14:10.918Z,0.22
2023-04-15T00:17:14.773Z,0.10
2023-04-15T00:20:19.047Z,0.37
2023-04-15T00:23:29.537Z,0.67
2023-04-15T00:26:34.195Z,0.79
2023-04-15T00:29:37.867Z,1.02
2023-04-15T00:32:42.971Z,1.09
2023-04-15T00:35:46.918Z,1.13
2023-04-15T00:38:50.094Z,1.23
2023-04-15T00:41:54.948Z,1.40
2023-04-15T00:44:58.770Z,1.60
2023-04-15T00:48:03.417Z,1.61
2023-04-15T00:51:10.109Z,1.66
2023-04-15T00:54:14.726Z,1.88
2023-04-15T00:57:18.019Z,2.09
2023-04-15T01:00:21.791Z,2.24
2023-04-15T01:03:25.095Z,2.35
2023-04-15T01:06:29.201Z,2.68
2023-04-15T01:09:33.879Z,2.91
2023-04-15T01:12:38.476Z,3.15
2023-04-15T01:15:44.161Z,3.29
2023-04-15T01:18:47.930Z,3.48
2023-04-15T01:21:52.516Z,3.71
2023-04-15T01:25:07.172Z,4.01
2023-04-15T01:28:11.388Z,4.49
2023-04-15T01:31:16.679Z,4.87
2023-04-15T01:34:20.654Z,5.72
2023-04-15T01:37:23.913Z,6.41
2023-04-15T01:40:28.140Z,6.93
2023-04-15T01:43:33.772Z,7.28
2023-04-15T01:46:38.893Z,8.03
2023-04-15T01:49:42.851Z,8.62
2023-04-15T01:52:47.651Z,8.88
2023-04-15T01:55:50.792Z,9.14
2023-04-15T01:58:54.725Z,8.42
2023-04-15T02:02:00.028Z,9.02
2023-04-15T02:05:06.209Z,9.42
2023-04-15T02:08:11.115Z,9.62
2023-04-15T02:11:16.131Z,10.09
2023-04-15T02:14:42.579Z,10.70
2023-04-15T02:18:16.376Z,11.46
2023-04-15T02:21:20.818Z,11.86
2023-04-15T02:24:24.757Z,12.09
2023-04-15T02:27:36.027Z,12.67
2023-04-15T02:30:41.934Z,13.05
2023-04-15T02:33:47.810Z,13.48
2023-04-15T02:36:55.664Z,13.26
2023-04-15T02:39:59.890Z,13.88
2023-04-15T02:43:05.991Z,14.31
2023-04-15T02:46:15.718Z,15.11
2023-04-15T02:49:19.760Z,15.64
2023-04-15T02:52:27.144Z,15.95
2023-04-15T02:58:51.953Z,16.91
2023-04-15T03:02:01.365Z,17.10
2023-04-15T03:05:07.083Z,16.49
2023-04-15T03:08:10.596Z,16.98
2023-04-15T03:11:17.149Z,18.11
2023-04-15T03:14:23.791Z,18.18
2023-04-15T03:17:28.710Z,17.98
2023-04-15T03:20:33.221Z,18.56
2023-04-15T03:23:41.808Z,18.90
2023-04-15T03:26:45.402Z,19.31
2023-04-15T03:29:55.939Z,20.19
2023-04-15T03:33:05.595Z,20.02
2023-04-15T03:36:10.706Z,20.47
2023-04-15T03:39:37.225Z,20.61
2023-04-15T03:43:06.397Z,20.91
2023-04-15T03:46:13.677Z,20.71
2023-04-15T03:49:21.829Z,21.26
2023-04-15T03:52:29.601Z,21.45
2023-04-15T03:55:40.403Z,22.11
2023-04-15T03:58:46.965Z,22.65
2023-04-15T04:02:02.502Z,22.32
2023-04-15T04:05:10.463Z,21.79
2023-04-15T04:08:26.773Z,22.34
2023-04-15T04:11:41.374Z,22.44
2023-04-15T04:14:46.570Z,22.07
2023-04-15T04:18:00.613Z,20.92
2023-04-15T04:21:12.574Z,22.37
2023-04-15T04:24:19.619Z,24.21
2023-04-15T04:27:27.359Z,22.09
2023-04-15T04:30:30.895Z,22.74
2023-04-15T04:33:35.209Z,23.68
2023-04-15T04:36:38.328Z,25.24
2023-04-15T04:39:41.794Z,25.70
2023-04-15T04:42:46.203Z,24.43
2023-04-15T04:45:49.685Z,24.12
2023-04-15T04:48:53.031Z,22.92
2023-04-15T04:51:57.349Z,21.70
2023-04-15T04:55:00.875Z,21.65
2023-04-15T04:58:04.426Z,20.66
2023-04-15T05:01:08.464Z,20.99
2023-04-15T05:04:12.353Z,20.88
2023-04-15T05:07:16.558Z,23.17
2023-04-15T05:10:20.353Z,24.16
2023-04-15T05:13:23.550Z,25.55
2023-04-15T05:16:28.259Z,26.47
2023-04-15T05:19:32.437Z,27.21
2023-04-15T05:22:35.982Z,26.31
2023-04-15T05:25:39.084Z,25.15
2023-04-15T05:28:49.278Z,24.19
2023-04-15T05:31:53.565Z,22.98
2023-04-15T05:34:59.522Z,24.42
2023-04-15T05:38:03.060Z,26.22
2023-04-15T05:41:20.054Z,26.55
2023-04-15T05:44:25.423Z,27.26
2023-04-15T05:47:30.119Z,28.48
2023-04-15T05:50:34.224Z,25.16
2023-04-15T05:53:38.571Z,25.83
2023-04-15T05:57:08.914Z,26.03
2023-04-15T06:00:22.884Z,28.82
2023-04-15T06:03:26.898Z,30.32
2023-04-15T06:06:30.014Z,31.85
2023-04-15T06:09:34.508Z,32.98
2023-04-15T06:12:48.939Z,34.51
2023-04-15T06:15:52.772Z,33.63
2023-04-15T06:18:56.813Z,28.67
2023-04-15T06:22:08.901Z,29.15
2023-04-15T06:25:12.035Z,31.95
2023-04-15T06:28:16.133Z,32.72
2023-04-15T06:31:20.290Z,33.36
2023-04-15T06:34:25.201Z,32.31
2023-04-15T06:37:28.820Z,31.01
2023-04-15T06:40:32.893Z,31.36
2023-04-15T06:43:36.265Z,29.66
2023-04-15T06:46:43.339Z,27.70
2023-04-15T06:49:47.312Z,30.04
2023-04-15T06:53:03.211Z,31.42
2023-04-15T06:56:10.381Z,30.38
2023-04-15T06:59:15.048Z,30.50
2023-04-15T07:02:19.463Z,30.97
2023-04-15T07:05:22.517Z,31.84
2023-04-15T07:08:26.249Z,33.37
2023-04-15T07:11:29.537Z,31.86
2023-04-15T07:14:32.860Z,32.37
2023-04-15T07:17:36.697Z,31.93
2023-04-15T07:20:41.315Z,32.92
2023-04-15T07:23:44.288Z,33.77
2023-04-15T07:26:47.686Z,34.60
2023-04-15T07:29:52.679Z,32.96
2023-04-15T07:32:57.105Z,32.23
2023-04-15T07:36:00.842Z,29.95
2023-04-15T07:39:04.708Z,28.73
2023-04-15T07:42:07.988Z,29.24
2023-04-15T07:45:12.296Z,31.34
2023-04-15T07:48:15.626Z,31.90
2023-04-15T07:51:19.855Z,29.35
2023-04-15T07:54:23.760Z,27.33
2023-04-15T07:57:27.452Z,26.70
2023-04-15T08:00:31.212Z,27.29
2023-04-15T08:03:35.418Z,28.50
2023-04-15T08:06:40.284Z,28.78
2023-04-15T08:09:44.293Z,31.29
2023-04-15T08:12:50.026Z,33.18
2023-04-15T08:16:23.813Z,34.15
2023-04-15T08:19:26.985Z,33.17
2023-04-15T08:22:31.076Z,32.85
2023-04-15T08:25:35.197Z,33.09
2023-04-15T08:28:40.794Z,33.30
2023-04-15T08:31:45.411Z,31.52
2023-04-15T08:34:48.788Z,32.55
2023-04-15T08:37:52.009Z,32.85
2023-04-15T08:40:58.300Z,30.60
2023-04-15T08:44:08.042Z,30.44
2023-04-15T08:47:14.710Z,29.62
2023-04-15T08:50:19.377Z,30.47
2023-04-15T08:53:22.901Z,29.90
2023-04-15T08:56:28.842Z,30.35
2023-04-15T08:59:32.541Z,29.56
2023-04-15T09:02:36.566Z,30.50
2023-04-15T09:05:40.956Z,30.29
2023-04-15T09:08:45.442Z,31.07
2023-04-15T09:11:50.970Z,31.38
2023-04-15T09:14:56.229Z,30.40
2023-04-15T09:17:59.561Z,30.66
2023-04-15T09:21:09.309Z,31.44
2023-04-15T09:24:12.787Z,31.95
2023-04-15T09:27:18.951Z,32.32
2023-04-15T09:30:22.005Z,30.79
2023-04-15T09:33:25.452Z,30.59
2023-04-15T09:36:32.451Z,28.83
2023-04-15T09:39:53.541Z,27.42
2023-04-15T09:42:57.492Z,24.51
2023-04-15T09:46:00.526Z,24.69
2023-04-15T09:49:11.354Z,27.41
2023-04-15T09:52:15.279Z,28.02
2023-04-15T09:55:20.192Z,29.11
2023-04-15T09:58:28.054Z,29.73
2023-04-15T10:01:31.773Z,29.56
2023-04-15T10:04:40.360Z,29.50
2023-04-15T10:07:44.210Z,29.22
2023-04-15T10:10:49.026Z,28.42
2023-04-15T10:13:53.532Z,27.80
2023-04-15T10:16:59.160Z,26.85
2023-04-15T10:20:05.672Z,24.88
2023-04-15T10:23:12.175Z,23.25
2023-04-15T10:26:18.141Z,22.83
2023-04-15T10:29:21.438Z,21.75
2023-04-15T10:32:26.941Z,20.47
2023-04-15T10:35:34.880Z,19.32
2023-04-15T10:38:44.060Z,18.10
2023-04-15T10:42:06.893Z,17.14
2023-04-15T10:45:21.157Z,16.65
2023-04-15T10:48:25.113Z,16.07
2023-04-15T10:51:33.470Z,15.74
2023-04-15T10:54:36.884Z,15.37
2023-04-15T10:57:42.242Z,14.97
2023-04-15T11:00:53.709Z,14.74
2023-04-15T11:03:57.143Z,14.37
2023-04-15T11:07:09.539Z,14.11
2023-04-15T11:10:19.116Z,13.85
2023-04-15T11:13:24.348Z,13.53
2023-04-15T11:16:28.129Z,13.28
2023-04-15T11:19:41.837Z,13.12
2023-04-15T11:22:53.435Z,12.88
2023-04-15T11:26:17.248Z,12.67
2023-04-15T11:29:21.979Z,12.54
2023-04-15T11:32:25.465Z,12.34
2023-04-15T11:35:29.884Z,12.09
2023-04-15T11:38:35.210Z,11.91
2023-04-15T11:41:39.170Z,11.73
2023-04-15T11:44:42.782Z,11.61
2023-04-15T11:47:46.377Z,11.48
2023-04-15T11:50:59.790Z,11.43
2023-04-15T11:54:04.802Z,11.37
2023-04-15T11:57:08.723Z,11.32
2023-04-15T12:00:13.656Z,11.21
2023-04-15T12:03:27.944Z,11.14
2023-04-15T12:06:39.741Z,11.05
2023-04-15T12:09:43.432Z,11.00
2023-04-15T12:12:50.532Z,10.89
2023-04-15T12:15:56.326Z,10.73
2023-04-15T12:19:01.352Z,10.66
2023-04-15T12:22:09.595Z,10.59
2023-04-15T12:25:13.215Z,10.52
2023-04-15T12:28:18.307Z,10.47
2023-04-15T12:31:22.144Z,10.36
2023-04-15T12:34:33.845Z,10.31
2023-04-15T12:37:37.127Z,10.23
2023-04-15T12:40:40.082Z,10.17
2023-04-15T12:43:46.596Z,10.12
2023-04-15T12:46:49.722Z,10.01
2023-04-15T12:49:54.610Z,9.92
2023-04-15T12:52:58.466Z,9.83
2023-04-15T12:56:02.299Z,9.83
2023-04-15T12:59:06.365Z,9.85
2023-04-15T13:02:09.931Z,9.76
2023-04-15T13:05:15.211Z,9.76
2023-04-15T13:08:19.945Z,9.70
2023-04-15T13:11:24.050Z,9.72
2023-04-15T13:14:28.127Z,9.67
2023-04-15T13:17:32.156Z,9.64
2023-04-15T13:20:36.376Z,9.63
2023-04-15T13:23:39.416Z,9.63
2023-04-15T13:26:42.859Z,9.52
2023-04-15T13:29:45.950Z,9.50
2023-04-15T13:32:50.995Z,9.44
2023-04-15T13:35:54.293Z,9.45
2023-04-15T13:39:00.936Z,9.39
2023-04-15T13:42:04.752Z,9.39
2023-04-15T13:45:09.382Z,9.34
2023-04-15T13:48:12.528Z,9.33
2023-04-15T13:51:16.650Z,9.28
2023-04-15T13:54:20.317Z,9.20
2023-04-15T13:57:23.740Z,9.17
2023-04-15T14:00:27.880Z,9.11
2023-04-15T14:03:32.250Z,9.08
2023-04-15T14:06:35.652Z,9.00
2023-04-15T14:12:45.967Z,8.98
2023-04-15T14:15:49.838Z,8.93
2023-04-15T14:18:54.352Z,8.93
2023-04-15T14:21:58.937Z,8.88
2023-04-15T14:25:02.390Z,8.83
2023-04-15T14:28:05.832Z,8.79
2023-04-15T14:31:09.889Z,8.78
2023-04-15T14:34:14.485Z,8.80
2023-04-15T14:37:18.194Z,8.78
2023-04-15T14:40:21.700Z,8.83
2023-04-15T14:43:25.344Z,8.80
2023-04-15T14:46:28.984Z,8.77
2023-04-15T14:49:32.658Z,8.72
2023-04-15T14:52:39.906Z,8.73
2023-04-15T14:55:43.071Z,8.69
2023-04-15T14:58:47.284Z,8.66
2023-04-15T15:01:51.095Z,8.66
2023-04-15T15:04:55.815Z,8.59
2023-04-15T15:07:59.301Z,8.60
2023-04-15T15:11:03.384Z,8.52
2023-04-15T15:14:07.090Z,8.50
2023-04-15T15:17:11.990Z,8.53
2023-04-15T15:20:15.234Z,8.52
2023-04-15T15:23:19.524Z,8.50
2023-04-15T15:26:23.735Z,8.50
2023-04-15T15:29:27.424Z,8.47
2023-04-15T15:32:31.536Z,8.42
2023-04-15T15:35:35.630Z,8.42
2023-04-15T15:38:41.682Z,8.43
2023-04-15T15:41:44.979Z,8.41
2023-04-15T15:44:50.262Z,8.38
2023-04-15T15:47:53.559Z,8.34
2023-04-15T15:50:57.418Z,8.26
2023-04-15T15:54:00.871Z,8.22
2023-04-15T15:57:04.798Z,8.17
2023-04-15T16:00:12.810Z,8.16
2023-04-15T16:03:17.028Z,8.10
2023-04-15T16:06:21.006Z,8.10
2023-04-15T16:09:25.037Z,8.06
2023-04-15T16:12:29.265Z,8.06
2023-04-15T16:15:32.318Z,8.04
2023-04-15T16:18:36.422Z,8.00
2023-04-15T16:21:40.112Z,7.95
2023-04-15T16:24:44.135Z,7.94
2023-04-15T16:28:00.894Z,7.92
2023-04-15T16:31:11.826Z,7.93
2023-04-15T16:34:16.388Z,7.88
2023-04-15T16:37:21.558Z,7.82
2023-04-15T16:40:26.769Z,7.82
2023-04-15T16:43:30.636Z,7.82
2023-04-15T16:46:34.343Z,7.75
2023-04-15T16:49:38.790Z,7.75
2023-04-15T16:52:41.980Z,7.69
2023-04-15T16:55:45.313Z,7.68
2023-04-15T16:58:49.071Z,7.66
2023-04-15T17:01:52.957Z,7.72
2023-04-15T17:04:56.369Z,7.61
2023-04-15T17:08:00.665Z,7.63
2023-04-15T17:11:04.011Z,7.70
2023-04-15T17:14:08.837Z,7.63
2023-04-15T17:17:11.865Z,7.59
2023-04-15T17:20:18.252Z,7.57
2023-04-15T17:23:21.929Z,7.46
2023-04-15T17:26:25.913Z,7.39
2023-04-15T17:29:29.198Z,7.34
2023-04-15T17:32:35.312Z,7.31
2023-04-15T17:35:38.213Z,7.32
2023-04-15T17:38:42.299Z,7.34
2023-04-15T17:41:46.250Z,7.33
2023-04-15T17:44:50.324Z,7.30
2023-04-15T17:47:54.089Z,7.34
2023-04-15T17:50:58.172Z,7.36
2023-04-15T17:54:01.629Z,7.30
2023-04-15T17:57:05.730Z,7.30
2023-04-15T18:00:10.764Z,7.26
2023-04-15T18:03:18.591Z,7.19
2023-04-15T18:06:22.976Z,7.08
2023-04-15T18:09:27.891Z,7.05
2023-04-15T18:12:31.653Z,7.01
2023-04-15T18:15:36.165Z,7.10
2023-04-15T18:18:39.487Z,7.11
2023-04-15T18:21:43.674Z,7.17
2023-04-15T18:24:47.625Z,7.17
2023-04-15T18:27:50.659Z,7.15
2023-04-15T18:30:54.556Z,7.19
2023-04-15T18:33:58.299Z,7.15
2023-04-15T18:37:02.565Z,7.13
2023-04-15T18:40:08.444Z,7.11
2023-04-15T18:43:12.649Z,7.13
2023-04-15T18:46:17.609Z,7.10
2023-04-15T18:49:21.531Z,7.07
2023-04-15T18:52:25.628Z,7.01
2023-04-15T18:55:29.364Z,7.02
2023-04-15T18:59:20.790Z,7.01
2023-04-15T19:01:57.345Z,6.99
2023-04-15T19:05:04.933Z,6.97
2023-04-15T19:08:08.562Z,6.95
2023-04-15T19:11:12.032Z,6.96
2023-04-15T19:14:15.374Z,6.95
2023-04-15T19:17:18.786Z,6.88
2023-04-15T19:20:22.668Z,6.84
2023-04-15T19:23:26.911Z,6.82
2023-04-15T19:26:30.285Z,6.86
2023-04-15T19:29:34.764Z,6.76
2023-04-15T19:32:38.901Z,6.70
2023-04-15T19:35:42.706Z,6.71
2023-04-15T19:38:46.541Z,6.67
2023-04-15T19:41:51.324Z,6.68
2023-04-15T19:44:56.337Z,6.73
2023-04-15T19:48:00.537Z,6.72
2023-04-15T19:51:04.351Z,6.71
2023-04-15T19:54:08.359Z,6.73
2023-04-15T19:57:11.821Z,6.70
2023-04-15T20:00:15.278Z,6.62
2023-04-15T20:03:19.428Z,6.60
2023-04-15T20:06:23.756Z,6.58
2023-04-15T20:09:27.469Z,6.55
2023-04-15T20:12:49.933Z,6.55
2023-04-15T20:15:54.745Z,6.61
2023-04-15T20:19:04.863Z,6.62
2023-04-15T20:22:09.662Z,6.66
2023-04-15T20:25:14.096Z,6.64
2023-04-15T20:28:19.371Z,6.65
2023-04-15T20:31:23.514Z,6.65
2023-04-15T20:34:27.301Z,6.63
2023-04-15T20:37:34.205Z,6.59
2023-04-15T20:40:39.438Z,6.50
2023-04-15T20:43:44.169Z,6.46
2023-04-15T20:46:47.860Z,6.43
2023-04-15T20:49:51.991Z,6.38
2023-04-15T20:52:55.929Z,6.40
2023-04-15T20:56:01.205Z,6.36
2023-04-15T20:59:06.473Z,6.33
2023-04-15T21:02:10.092Z,6.32
2023-04-15T21:05:13.968Z,6.33
2023-04-15T21:08:18.100Z,6.38
2023-04-15T21:11:43.180Z,6.38
2023-04-15T21:14:45.681Z,6.41
2023-04-15T21:17:49.154Z,6.38
2023-04-15T21:21:03.777Z,6.43
2023-04-15T21:24:08.360Z,6.39
2023-04-15T21:27:12.452Z,6.42
2023-04-15T21:30:16.373Z,6.33
2023-04-15T21:33:21.314Z,6.34
2023-04-15T21:36:25.128Z,6.35
2023-04-15T21:39:29.382Z,6.33
2023-04-15T21:42:33.127Z,6.32
2023-04-15T21:45:40.198Z,6.41
2023-04-15T21:48:44.097Z,6.40
2023-04-15T21:51:48.565Z,6.39
2023-04-15T21:54:52.383Z,6.42
2023-04-15T21:57:56.254Z,6.44
2023-04-15T22:01:00.958Z,6.43
2023-04-15T22:04:06.461Z,6.43
2023-04-15T22:07:10.716Z,6.41
2023-04-15T22:10:14.400Z,6.42
2023-04-15T22:13:17.762Z,6.42
2023-04-15T22:16:21.758Z,6.45
2023-04-15T22:19:26.474Z,6.50
2023-04-15T22:22:43.840Z,6.52
2023-04-15T22:25:49.248Z,6.65
2023-04-15T22:28:52.861Z,6.69
2023-04-15T22:31:56.723Z,6.66
2023-04-15T22:35:00.651Z,6.65
2023-04-15T22:38:04.927Z,6.72
2023-04-15T22:41:08.972Z,6.74
2023-04-15T22:44:12.680Z,6.80
2023-04-15T22:47:16.764Z,6.87
2023-04-15T22:50:20.560Z,6.89
2023-04-15T22:53:24.791Z,6.87
2023-04-15T22:56:28.537Z,6.93
2023-04-15T22:59:32.449Z,6.93
2023-04-15T23:02:36.109Z,7.02
2023-04-15T23:05:41.974Z,7.07
2023-04-15T23:08:48.451Z,7.10
2023-04-15T23:11:52.393Z,7.15
2023-04-15T23:14:57.193Z,7.18
2023-04-15T23:18:01.403Z,7.25
2023-04-15T23:21:05.211Z,7.29
2023-04-15T23:24:09.357Z,7.31
2023-04-15T23:27:12.799Z,7.35
2023-04-15T23:30:16.576Z,7.37
2023-04-15T23:33:20.033Z,7.35
2023-04-15T23:36:23.885Z,7.33
2023-04-15T23:39:27.794Z,7.39
2023-04-15T23:42:31.640Z,7.43
2023-04-15T23:45:35.040Z,7.51
2023-04-15T23:48:39.863Z,7.57
2023-04-15T23:51:43.593Z,7.60
2023-04-15T23:54:47.293Z,7.64
2023-04-15T23:57:51.036Z,7.70
